Time;durP1;ratioP1;P1;durP2;ratioP2;P2;SDS_P1;SDS_P2;PMS_P1;PMS_P2;Temp;Humidity;BMP_temperature;BMP_pressure;BME280_temperature;BME280_humidity;BME280_pressure;Samples;Min_cycle;Max_cycle;Signal;HPM_P1;HPM_P2
2023/01/04 00:01:42;;;;;;;5.62;2.20;;;;;;;4.85;67.30;100962.13;1703317;84;21025;-64
2023/01/04 00:04:11;;;;;;;3.30;2.05;;;;;;;4.82;67.27;100967.00;1702945;83;21472;-65
2023/01/04 00:06:41;;;;;;;4.72;1.90;;;;;;;4.81;67.26;100966.14;1703006;84;21394;-64
2023/01/04 00:09:10;;;;;;;5.95;2.45;;;;;;;4.80;67.17;100969.00;1703221;83;21017;-65
2023/01/04 00:11:41;;;;;;;4.70;2.27;;;;;;;4.77;66.97;100975.59;1703312;84;21046;-63
2023/01/04 00:14:11;;;;;;;4.65;2.20;;;;;;;4.74;66.97;100971.30;1703078;84;21049;-67
2023/01/04 00:16:41;;;;;;;5.37;2.58;;;;;;;4.74;67.09;100981.30;1703073;84;21455;-66
2023/01/04 00:19:11;;;;;;;3.83;2.17;;;;;;;4.71;67.05;100981.09;1703004;84;21034;-64
2023/01/04 00:21:40;;;;;;;4.75;2.52;;;;;;;4.69;67.02;100979.53;1703269;84;21014;-67
2023/01/04 00:24:10;;;;;;;3.60;2.22;;;;;;;4.65;66.97;100983.04;1703293;84;21718;-65
2023/01/04 00:26:39;;;;;;;4.30;2.25;;;;;;;4.61;66.97;100980.26;1703200;84;21021;-66
2023/01/04 00:29:10;;;;;;;5.15;2.50;;;;;;;4.60;67.08;100976.33;1703083;84;21018;-65
2023/01/04 00:31:39;;;;;;;4.58;2.10;;;;;;;4.57;67.09;100985.62;1703039;84;20998;-65
2023/01/04 00:34:09;;;;;;;5.00;2.12;;;;;;;4.56;67.16;100985.27;1703524;84;21092;-63
2023/01/04 00:36:38;;;;;;;3.42;2.10;;;;;;;4.52;67.16;100983.81;1703918;84;21054;-64
2023/01/04 00:39:11;;;;;;;5.28;1.90;;;;;;;4.49;67.17;100988.67;1703530;84;21496;-64
2023/01/04 00:41:52;;;;;;;3.92;1.80;;;;;;;4.48;67.34;100985.09;1703151;84;21058;-65
2023/01/04 00:44:23;;;;;;;4.70;2.22;;;;;;;4.48;67.42;100982.39;1702321;84;21053;-66
2023/01/04 00:46:52;;;;;;;4.47;1.92;;;;;;;4.44;67.42;100983.67;1703175;84;21033;-65
2023/01/04 00:49:21;;;;;;;4.62;1.90;;;;;;;4.44;67.56;100982.31;1703122;84;21069;-67
2023/01/04 00:51:50;;;;;;;5.20;2.20;;;;;;;4.41;67.61;100984.81;1702948;84;21449;-66
2023/01/04 00:54:20;;;;;;;3.98;2.02;;;;;;;4.37;67.44;100988.82;1703221;84;21446;-65
2023/01/04 00:56:48;;;;;;;2.67;1.72;;;;;;;4.34;67.54;100993.17;1702981;84;21022;-65
2023/01/04 00:59:19;;;;;;;4.70;2.10;;;;;;;4.32;67.54;100984.82;1703018;84;21021;-64
2023/01/04 01:01:47;;;;;;;4.53;2.17;;;;;;;4.30;67.61;100980.04;1703023;84;21021;-67
2023/01/04 01:04:18;;;;;;;2.85;2.02;;;;;;;4.29;67.62;100986.47;1703138;84;21488;-63
2023/01/04 01:06:49;;;;;;;7.47;2.00;;;;;;;4.26;67.74;100985.39;1703007;84;21374;-65
2023/01/04 01:09:21;;;;;;;4.47;2.30;;;;;;;4.24;67.59;100976.05;1702990;84;20998;-64
2023/01/04 01:11:50;;;;;;;5.42;2.45;;;;;;;4.25;67.69;100979.61;1703157;84;21461;-65
2023/01/04 01:14:22;;;;;;;5.53;2.50;;;;;;;4.25;67.77;100974.19;1702941;84;21017;-65
2023/01/04 01:16:51;;;;;;;5.03;2.50;;;;;;;4.28;67.73;100979.33;1703202;84;21025;-65
2023/01/04 01:19:21;;;;;;;5.53;2.10;;;;;;;4.27;67.66;100972.19;1702559;84;21050;-66
2023/01/04 01:21:50;;;;;;;5.83;2.45;;;;;;;4.26;67.64;100971.83;1702935;83;21473;-65
2023/01/04 01:24:20;;;;;;;4.75;2.15;;;;;;;4.22;67.59;100969.05;1702994;83;21034;-66
2023/01/04 01:26:50;;;;;;;3.02;2.08;;;;;;;4.18;67.72;100973.05;1703042;84;21505;-65
2023/01/04 01:29:20;;;;;;;3.70;2.20;;;;;;;4.14;67.66;100969.27;1702997;83;21519;-64
2023/01/04 01:31:48;;;;;;;5.80;1.95;;;;;;;4.11;67.54;100962.77;1703051;84;21101;-66
2023/01/04 01:34:19;;;;;;;4.25;1.92;;;;;;;4.07;67.65;100977.61;1703072;83;21014;-65
2023/01/04 01:36:48;;;;;;;6.40;2.17;;;;;;;4.06;67.81;100971.83;1703211;84;21057;-66
2023/01/04 01:39:17;;;;;;;2.92;1.90;;;;;;;4.06;67.58;100975.04;1703055;83;21081;-65
2023/01/04 01:41:45;;;;;;;5.60;2.10;;;;;;;4.05;67.62;100977.39;1702962;83;21022;-63
2023/01/04 01:44:46;;;;;;;4.58;2.10;;;;;;;4.03;67.55;100982.10;1703012;84;21458;-65
2023/01/04 01:47:19;;;;;;;3.67;1.80;;;;;;;4.01;67.60;100989.02;1702965;83;21486;-65
2023/01/04 01:49:49;;;;;;;3.25;2.10;;;;;;;4.02;67.46;100983.95;1702839;83;21045;-67
2023/01/04 01:52:25;;;;;;;3.67;1.62;;;;;;;4.01;67.32;100988.17;1703690;84;20982;-65
2023/01/04 01:55:02;;;;;;;4.17;2.20;;;;;;;4.00;67.28;100987.31;1714321;84;21078;-65
2023/01/04 01:57:33;;;;;;;3.85;1.85;;;;;;;4.01;67.40;100986.31;1714132;84;21011;-65
2023/01/04 02:00:10;;;;;;;2.67;1.60;;;;;;;4.01;67.17;100978.17;1713725;84;21058;-65
2023/01/04 02:02:57;;;;;;;2.95;1.87;;;;;;;4.00;66.92;100977.81;1714110;84;21011;-64
2023/01/04 02:05:28;;;;;;;3.47;1.77;;;;;;;4.01;66.91;100976.82;1714024;83;21043;-64
2023/01/04 02:07:57;;;;;;;4.58;2.02;;;;;;;4.03;66.80;100973.97;1713752;84;21043;-65
2023/01/04 02:10:26;;;;;;;3.72;1.70;;;;;;;4.05;66.79;100972.83;1713830;84;21520;-65
2023/01/04 02:12:56;;;;;;;2.98;1.52;;;;;;;4.02;66.38;100969.55;1714222;84;21020;-64
2023/01/04 02:15:26;;;;;;;2.77;1.70;;;;;;;3.98;66.45;100968.97;1713883;84;21514;-64
2023/01/04 02:18:04;;;;;;;4.28;1.60;;;;;;;3.96;66.61;100968.75;1713791;84;21011;-65
2023/01/04 02:20:47;;;;;;;3.85;1.57;;;;;;;3.95;66.63;100971.97;1714014;83;21435;-66
2023/01/04 02:23:47;;;;;;;4.10;1.92;;;;;;;3.95;66.65;100967.04;1713744;84;21035;-63
2023/01/04 02:26:37;;;;;;;4.37;1.62;;;;;;;3.93;66.53;100964.97;1713874;83;21086;-65
2023/01/04 02:29:23;;;;;;;3.25;1.80;;;;;;;3.91;66.61;100962.90;1689091;84;21063;-65
2023/01/04 02:32:05;;;;;;;5.50;2.00;;;;;;;3.87;66.59;100962.29;1713702;83;21015;-65
2023/01/04 02:34:45;;;;;;;5.05;1.95;;;;;;;3.84;66.57;100963.92;1713949;84;21082;-66
2023/01/04 02:37:36;;;;;;;5.33;1.75;;;;;;;3.81;66.68;100956.08;1714128;84;21558;-66
2023/01/04 02:40:16;;;;;;;2.75;1.80;;;;;;;3.77;66.59;100949.22;1714068;84;21047;-65
2023/01/04 02:46:07;;;;;;;3.83;1.90;;;;;;;3.70;66.91;100953.00;1714095;83;21031;-66
2023/01/04 02:51:36;;;;;;;2.90;1.45;;;;;;;3.67;66.98;100964.11;1650364;87;21539;-65
2023/01/04 02:54:19;;;;;;;2.33;1.70;;;;;;;3.63;67.02;100965.89;1676806;85;21050;-66
2023/01/04 02:57:11;;;;;;;2.47;1.75;;;;;;;3.59;67.15;100961.74;1650512;87;21075;-64
2023/01/04 02:59:57;;;;;;;5.35;1.80;;;;;;;3.58;67.24;100960.03;1677117;85;21472;-65
2023/01/04 03:06:20;;;;;;;4.05;1.72;;;;;;;3.58;67.35;100959.53;1655215;87;21044;-66
2023/01/04 03:09:16;;;;;;;5.22;1.70;;;;;;;3.55;67.38;100961.66;1676759;85;21439;-65
2023/01/04 03:14:59;;;;;;;5.35;2.10;;;;;;;3.49;67.66;100950.38;1655495;87;21467;-65
2023/01/04 03:17:27;;;;;;;3.45;1.70;;;;;;;3.49;67.77;100946.32;1677308;85;21451;-65
2023/01/04 03:19:58;;;;;;;4.83;1.90;;;;;;;3.50;67.88;100953.95;1650527;87;21044;-64
2023/01/04 03:37:38;;;;;;;4.10;1.95;;;;;;;3.47;68.20;100958.29;1650493;87;21480;-65
2023/01/04 03:49:35;;;;;;;7.00;2.22;;;;;;;3.40;68.54;100972.88;1650445;87;21737;-65
2023/01/04 03:52:04;;;;;;;4.67;2.20;;;;;;;3.38;68.68;100968.59;1677048;85;21058;-63
2023/01/04 03:54:40;;;;;;;10.10;2.12;;;;;;;3.37;68.72;100963.68;1661491;86;21478;-65
2023/01/04 03:57:09;;;;;;;3.77;2.15;;;;;;;3.35;68.75;100964.31;1693272;85;21458;-64
2023/01/04 03:59:45;;;;;;;5.10;2.30;;;;;;;3.33;68.84;100965.45;1693296;85;21054;-64
2023/01/04 04:02:18;;;;;;;4.80;2.20;;;;;;;3.32;68.93;100968.66;1693038;84;21030;-63
2023/01/04 04:10:22;;;;;;;5.30;2.33;;;;;;;3.30;69.15;100972.00;1693379;84;21426;-65
2023/01/04 04:12:51;;;;;;;3.55;2.17;;;;;;;3.27;69.15;100976.33;1693444;85;21455;-65
2023/01/04 04:15:21;;;;;;;4.25;2.17;;;;;;;3.25;69.18;100962.07;1693194;85;21002;-63
2023/01/04 04:17:52;;;;;;;4.45;2.15;;;;;;;3.25;69.32;100967.95;1692978;85;21105;-65
2023/01/04 04:20:21;;;;;;;5.12;2.33;;;;;;;3.26;69.42;100966.98;1692997;85;21093;-65
2023/01/04 04:22:50;;;;;;;4.05;2.12;;;;;;;3.26;69.50;100971.05;1693348;85;21454;-64
2023/01/04 04:25:18;;;;;;;3.60;2.17;;;;;;;3.24;69.63;100969.80;1693011;85;21596;-65
2023/01/04 04:27:47;;;;;;;6.65;2.70;;;;;;;3.23;69.69;100969.94;1693067;85;21557;-68
2023/01/04 04:30:18;;;;;;;5.10;2.12;;;;;;;3.23;69.81;100968.09;1693417;85;21034;-64
2023/01/04 04:32:48;;;;;;;4.50;2.60;;;;;;;3.25;69.88;100972.02;1694047;85;20994;-63
2023/01/04 04:35:17;;;;;;;4.70;2.20;;;;;;;3.26;69.84;100976.47;1693983;84;21446;-65
2023/01/04 04:37:47;;;;;;;4.22;2.08;;;;;;;3.27;69.84;100971.41;1693002;85;21021;-64
2023/01/04 04:43:06;;;;;;;4.62;2.65;;;;;;;3.29;69.98;100969.42;1693107;85;21496;-66
2023/01/04 04:45:36;;;;;;;4.78;2.20;;;;;;;3.31;69.98;100972.36;1675901;85;21072;-66
2023/01/04 04:48:05;;;;;;;4.62;2.22;;;;;;;3.30;70.08;100969.29;1693251;84;21062;-65
2023/01/04 04:50:35;;;;;;;4.90;2.25;;;;;;;3.28;70.12;100965.86;1692986;85;21032;-65
2023/01/04 04:53:04;;;;;;;5.17;2.08;;;;;;;3.24;70.17;100964.39;1692914;85;21046;-65
2023/01/04 04:55:33;;;;;;;5.92;2.30;;;;;;;3.23;70.32;100972.64;1692991;83;21497;-65
2023/01/04 04:58:03;;;;;;;4.20;2.40;;;;;;;3.20;70.46;100971.07;1693142;84;21500;-65
2023/01/04 05:00:32;;;;;;;5.40;2.50;;;;;;;3.21;70.58;100977.34;1693395;85;21038;-64
2023/01/04 05:03:01;;;;;;;4.62;1.90;;;;;;;3.21;70.62;100979.55;1693329;85;21082;-63
2023/01/04 05:05:32;;;;;;;4.47;2.50;;;;;;;3.23;70.66;100981.63;1692928;85;21018;-65
2023/01/04 05:08:02;;;;;;;3.75;2.58;;;;;;;3.25;70.69;100978.78;1675777;85;21517;-65
2023/01/04 05:10:30;;;;;;;7.00;2.47;;;;;;;3.28;70.65;100978.05;1693252;85;21022;-65
2023/01/04 05:13:01;;;;;;;4.15;2.25;;;;;;;3.27;70.59;100979.04;1693109;84;21520;-66
2023/01/04 05:15:36;;;;;;;4.60;2.15;;;;;;;3.27;70.61;100988.52;1692993;85;21500;-63
2023/01/04 05:18:06;;;;;;;4.20;2.27;;;;;;;3.30;70.68;100989.59;1692932;85;21085;-66
2023/01/04 05:20:35;;;;;;;3.50;2.35;;;;;;;3.34;70.69;100990.19;1692994;85;21133;-65
2023/01/04 05:23:05;;;;;;;5.25;2.55;;;;;;;3.35;70.58;100988.69;1693012;85;21536;-66
2023/01/04 05:25:34;;;;;;;3.47;2.40;;;;;;;3.38;70.64;100991.62;1675375;85;21034;-64
2023/01/04 05:28:05;;;;;;;4.92;2.42;;;;;;;3.40;70.37;100992.34;1693180;85;21018;-64
2023/01/04 05:33:30;;;;;;;6.75;3.67;;;;;;;3.44;70.38;100996.00;1693269;85;21482;-65
2023/01/04 05:36:01;;;;;;;8.33;3.98;;;;;;;3.47;70.35;100999.78;1692886;85;21184;-64
2023/01/04 05:38:30;;;;;;;7.72;3.62;;;;;;;3.49;70.33;101005.92;1693011;84;21482;-65
2023/01/04 05:40:59;;;;;;;7.05;4.08;;;;;;;3.53;70.20;101006.50;1692911;85;21080;-64
2023/01/04 05:43:28;;;;;;;5.10;3.10;;;;;;;3.54;70.17;101004.66;1693166;85;21061;-65
2023/01/04 05:45:57;;;;;;;9.50;3.60;;;;;;;3.53;70.05;101002.94;1692847;85;21050;-65
2023/01/04 05:48:27;;;;;;;5.35;3.10;;;;;;;3.56;70.12;101007.58;1693049;85;21030;-65
2023/01/04 05:50:55;;;;;;;6.03;2.80;;;;;;;3.58;70.02;101001.53;1692979;85;21077;-66
2023/01/04 05:53:24;;;;;;;6.33;3.20;;;;;;;3.59;69.99;100996.97;1692982;85;21125;-65
2023/01/04 05:55:52;;;;;;;9.85;2.90;;;;;;;3.59;69.95;101006.45;1692799;85;21521;-66
2023/01/04 05:58:23;;;;;;;5.45;3.30;;;;;;;3.56;69.88;100999.95;1692990;85;21026;-65
2023/01/04 06:00:52;;;;;;;10.05;4.03;;;;;;;3.57;70.04;101007.09;1693089;85;21516;-65
2023/01/04 06:03:20;;;;;;;8.40;3.10;;;;;;;3.58;70.05;101008.30;1675571;85;21411;-67
2023/01/04 06:05:51;;;;;;;6.72;3.45;;;;;;;3.60;70.13;101002.25;1692778;85;21470;-67
2023/01/04 06:08:20;;;;;;;7.08;3.22;;;;;;;3.63;70.07;101007.89;1693062;85;21415;-64
2023/01/04 06:10:54;;;;;;;9.60;3.65;;;;;;;3.64;70.05;101005.04;1692922;85;21443;-65
2023/01/04 06:13:23;;;;;;;6.85;3.50;;;;;;;3.63;70.08;101001.11;1693011;85;21442;-63
2023/01/04 06:15:53;;;;;;;8.50;4.00;;;;;;;3.61;70.07;101003.96;1692909;85;21051;-65
2023/01/04 06:18:23;;;;;;;10.03;4.22;;;;;;;3.62;70.17;101002.97;1693010;85;21050;-64
2023/01/04 06:20:52;;;;;;;10.20;4.80;;;;;;;3.62;70.16;101012.45;1693408;85;21390;-64
2023/01/04 06:23:21;;;;;;;9.08;4.25;;;;;;;3.62;70.23;101008.38;1693030;85;21498;-65
2023/01/04 06:25:49;;;;;;;7.35;3.50;;;;;;;3.64;70.33;101015.02;1692725;85;20994;-65
2023/01/04 06:28:18;;;;;;;7.40;4.53;;;;;;;3.63;70.26;101017.38;1693001;85;21431;-66
2023/01/04 06:30:47;;;;;;;9.03;4.40;;;;;;;3.63;70.34;101022.30;1675528;85;21111;-65
2023/01/04 06:33:18;;;;;;;7.65;3.50;;;;;;;3.66;70.45;101033.36;1693224;85;21006;-66
2023/01/04 06:35:55;;;;;;;7.45;3.10;;;;;;;3.66;70.36;101030.64;1692996;85;21113;-65
2023/01/04 06:38:24;;;;;;;8.33;2.90;;;;;;;3.66;70.37;101030.64;1693184;85;21915;-65
2023/01/04 06:40:56;;;;;;;9.58;2.60;;;;;;;3.70;70.39;101023.95;1610072;88;21090;-64
2023/01/04 06:43:25;;;;;;;11.63;4.45;;;;;;;3.70;70.40;101030.73;1589485;89;21515;-65
2023/01/04 06:45:55;;;;;;;9.80;3.52;;;;;;;3.71;70.41;101031.95;1619294;88;21037;-66
2023/01/04 06:48:26;;;;;;;19.50;7.45;;;;;;;3.73;70.37;101030.45;1619205;87;21053;-65
2023/01/04 06:50:55;;;;;;;11.55;4.60;;;;;;;3.73;70.33;101026.39;1619292;88;21105;-65
2023/01/04 06:53:24;;;;;;;18.27;4.60;;;;;;;3.73;70.45;101024.53;1619242;88;21152;-65
2023/01/04 06:55:53;;;;;;;10.93;4.00;;;;;;;3.75;70.42;101037.45;1621666;88;21079;-65
2023/01/04 06:58:22;;;;;;;14.35;5.15;;;;;;;3.76;70.47;101036.95;1629014;88;21087;-64
2023/01/04 07:00:53;;;;;;;7.35;3.17;;;;;;;3.79;70.52;101050.23;1628886;88;21125;-65
2023/01/04 07:03:22;;;;;;;9.98;3.67;;;;;;;3.82;70.44;101041.32;1628934;88;21120;-65
2023/01/04 07:05:52;;;;;;;9.18;3.30;;;;;;;3.85;70.40;101036.13;1683390;84;21098;-65
2023/01/04 07:08:22;;;;;;;9.10;3.37;;;;;;;3.88;70.34;101039.05;1714111;84;21054;-66
2023/01/04 07:10:51;;;;;;;9.68;3.60;;;;;;;3.88;70.36;101038.55;1714244;83;21011;-65
2023/01/04 07:13:21;;;;;;;10.08;3.33;;;;;;;3.90;70.26;101039.30;1714131;83;21423;-66
2023/01/04 07:15:50;;;;;;;5.30;3.10;;;;;;;3.90;70.28;101038.41;1637020;86;21106;-65
2023/01/04 07:18:20;;;;;;;7.95;3.65;;;;;;;3.89;70.23;101040.27;1658761;86;21073;-67
2023/01/04 07:20:50;;;;;;;11.53;3.22;;;;;;;3.89;70.18;101038.91;1658945;86;21585;-66
2023/01/04 07:23:21;;;;;;;8.18;3.67;;;;;;;3.88;70.20;101037.20;1658782;86;21469;-66
2023/01/04 07:25:50;;;;;;;9.23;3.05;;;;;;;3.90;70.24;101039.77;1658735;86;21101;-66
2023/01/04 07:31:07;;;;;;;7.33;2.83;;;;;;;4.00;70.19;101041.53;1658831;86;21075;-66
2023/01/04 07:33:36;;;;;;;9.88;3.02;;;;;;;4.04;70.09;101042.97;1677519;84;21035;-65
2023/01/04 07:36:05;;;;;;;9.93;3.02;;;;;;;4.05;69.94;101041.97;1714106;84;21518;-66
2023/01/04 07:38:34;;;;;;;7.10;2.60;;;;;;;4.06;69.81;101051.83;1713970;84;21279;-65
2023/01/04 07:41:03;;;;;;;7.20;3.20;;;;;;;4.07;69.74;101041.83;1713943;84;21070;-66
2023/01/04 07:43:32;;;;;;;8.53;3.15;;;;;;;4.09;69.76;101048.83;1713854;84;21030;-65
2023/01/04 07:46:01;;;;;;;7.28;3.30;;;;;;;4.11;69.74;101056.33;1714248;83;21564;-67
2023/01/04 07:48:30;;;;;;;7.92;3.35;;;;;;;4.11;69.51;101052.76;1713940;84;21046;-65
2023/01/04 07:50:59;;;;;;;10.23;3.00;;;;;;;4.13;69.54;101060.26;1714007;84;21438;-65
2023/01/04 07:53:28;;;;;;;12.40;3.37;;;;;;;4.14;69.62;101049.27;1713891;84;21451;-65
2023/01/04 07:55:57;;;;;;;4.78;2.55;;;;;;;4.17;69.52;101050.84;1713725;84;21557;-64
2023/01/04 07:58:32;;;;;;;4.75;2.50;;;;;;;4.18;69.48;101047.63;1714065;84;21031;-65
2023/01/04 08:01:08;;;;;;;6.15;2.80;;;;;;;4.20;69.42;101053.77;1713899;84;21034;-66
2023/01/04 08:03:37;;;;;;;6.55;2.70;;;;;;;4.20;69.43;101052.41;1714085;83;21062;-65
2023/01/04 08:06:08;;;;;;;11.93;3.85;;;;;;;4.18;69.42;101052.55;1714022;84;21479;-66
2023/01/04 08:08:38;;;;;;;7.35;3.33;;;;;;;4.18;69.63;101051.20;1714050;84;21060;-66
2023/01/04 08:11:13;;;;;;;10.05;4.62;;;;;;;4.22;69.64;101049.06;1713850;84;21490;-66
2023/01/04 08:13:42;;;;;;;10.23;3.37;;;;;;;4.23;69.76;101048.92;1713875;84;21399;-64
2023/01/04 08:16:22;;;;;;;11.95;2.90;;;;;;;4.27;69.85;101056.28;1713824;84;21023;-64
2023/01/04 08:18:55;;;;;;;4.47;2.50;;;;;;;4.32;69.93;101056.70;1713832;84;21550;-65
2023/01/04 08:21:28;;;;;;;10.05;3.40;;;;;;;4.36;69.69;101056.78;1714342;84;21038;-65
2023/01/04 08:23:56;;;;;;;5.75;2.80;;;;;;;4.37;69.59;101061.21;1698178;84;21474;-65
2023/01/04 08:26:25;;;;;;;4.75;2.45;;;;;;;4.39;69.60;101061.92;1714077;84;21071;-64
2023/01/04 08:28:55;;;;;;;6.62;3.08;;;;;;;4.40;69.60;101067.71;1714692;83;21055;-65
2023/01/04 08:31:30;;;;;;;4.20;2.60;;;;;;;4.39;69.56;101068.71;1714506;84;21040;-65
2023/01/04 08:34:01;;;;;;;6.37;2.72;;;;;;;4.38;69.59;101069.21;1697920;84;21027;-66
2023/01/04 08:36:34;;;;;;;12.07;2.62;;;;;;;4.37;69.74;101066.64;1714006;83;21110;-66
2023/01/04 08:39:05;;;;;;;10.25;2.55;;;;;;;4.39;69.89;101072.78;1714165;84;21051;-65
2023/01/04 08:41:49;;;;;;;11.73;3.37;;;;;;;4.39;69.96;101072.78;1714137;84;21038;-65
2023/01/04 08:44:08;;;;;;;8.55;3.10;;;;;;;4.40;70.08;101071.78;1710095;83;21119;-65
2023/01/04 08:46:37;;;;;;;6.45;3.00;;;;;;;4.42;70.10;101073.86;1713896;83;21011;-65
2023/01/04 08:49:07;;;;;;;8.55;3.22;;;;;;;4.44;70.14;101069.14;1713815;83;21066;-66
2023/01/04 08:51:36;;;;;;;10.95;3.37;;;;;;;4.45;69.96;101064.08;1713842;84;21486;-66
2023/01/04 08:54:05;;;;;;;17.25;4.58;;;;;;;4.43;69.98;101064.22;1713943;84;21067;-66
2023/01/04 08:56:35;;;;;;;6.85;2.70;;;;;;;4.45;70.03;101066.28;1710671;83;21053;-67
2023/01/04 08:59:05;;;;;;;4.70;2.47;;;;;;;4.48;69.95;101069.72;1703028;84;21108;-66
2023/01/04 09:01:34;;;;;;;10.10;3.83;;;;;;;4.48;69.75;101062.93;1703206;84;21053;-65
2023/01/04 09:04:04;;;;;;;5.97;2.80;;;;;;;4.48;69.62;101069.72;1702791;84;21073;-64
2023/01/04 09:06:33;;;;;;;9.75;3.70;;;;;;;4.45;69.52;101064.08;1702970;84;21117;-66
2023/01/04 09:09:02;;;;;;;8.58;4.05;;;;;;;4.45;69.52;101064.08;1703111;84;21029;-67
2023/01/04 09:11:34;;;;;;;12.73;3.95;;;;;;;4.46;69.69;101057.65;1610688;88;21112;-67
2023/01/04 09:14:07;;;;;;;10.08;3.17;;;;;;;4.52;70.71;101057.08;1587380;89;21113;-70
2023/01/04 09:16:39;;;;;;;7.17;3.40;;;;;;;4.57;69.86;101071.61;1610778;88;21078;-67
2023/01/04 09:19:08;;;;;;;8.45;2.90;;;;;;;4.57;69.49;101057.54;1610636;89;21087;-70
2023/01/04 09:21:37;;;;;;;5.85;2.35;;;;;;;4.58;69.53;101063.83;1610205;88;21549;-72
2023/01/04 09:26:51;;;;;;;7.10;3.12;;;;;;;4.57;70.48;101068.39;1599197;89;21533;-69
2023/01/04 09:29:21;;;;;;;7.90;2.70;;;;;;;4.59;71.04;101069.11;1617278;89;21085;-66
2023/01/04 09:31:50;;;;;;;7.50;2.50;;;;;;;4.61;70.98;101068.97;1617408;89;21150;-69
2023/01/04 09:34:20;;;;;;;9.58;3.17;;;;;;;4.60;70.74;101074.89;1617555;87;21126;-68
2023/01/04 09:36:51;;;;;;;6.30;3.10;;;;;;;4.61;70.64;101071.17;1687215;84;21133;-67
2023/01/04 09:39:20;;;;;;;13.03;5.33;;;;;;;4.57;70.49;101063.47;1708223;83;21065;-70
2023/01/04 09:42:02;;;;;;;10.35;4.15;;;;;;;4.57;70.94;101059.39;1708131;84;21308;-68
2023/01/04 09:44:42;;;;;;;11.43;4.65;;;;;;;4.58;71.80;101056.54;1708339;84;21073;-67
2023/01/04 09:47:41;;;;;;;14.40;5.47;;;;;;;4.62;72.67;101061.18;1704088;82;21050;-67
2023/01/04 09:50:30;;;;;;;11.53;5.40;;;;;;;4.68;73.02;101053.81;1672871;84;21077;-68
2023/01/04 09:53:13;;;;;;;11.80;5.12;;;;;;;4.67;72.70;101051.61;1708160;84;21034;-71
2023/01/04 09:55:49;;;;;;;9.05;3.65;;;;;;;4.67;72.67;101043.46;1708189;84;21473;-69
2023/01/04 09:58:35;;;;;;;8.15;4.08;;;;;;;4.72;73.16;101040.31;1708250;84;21497;-67
2023/01/04 10:01:16;;;;;;;10.80;4.20;;;;;;;4.70;72.83;101040.45;1708135;84;21030;-68
2023/01/04 10:04:38;;;;;;;6.83;2.87;;;;;;;4.68;72.86;101042.46;1708160;84;21062;-68
2023/01/04 10:07:28;;;;;;;12.25;4.20;;;;;;;4.70;72.51;101044.53;1645469;87;21103;-69
2023/01/04 10:09:59;;;;;;;6.78;3.80;;;;;;;4.65;72.60;101048.18;1568844;90;21079;-67
2023/01/04 10:13:04;;;;;;;8.55;4.15;;;;;;;4.61;72.98;101048.11;1588121;88;21105;-67
2023/01/04 10:15:44;;;;;;;12.20;5.42;;;;;;;4.58;73.05;101048.39;1620471;88;21057;-67
2023/01/04 10:18:24;;;;;;;9.35;4.90;;;;;;;4.59;73.23;101052.82;1620473;88;21488;-68
2023/01/04 10:21:28;;;;;;;11.75;4.90;;;;;;;4.56;74.07;101050.39;1617369;88;21080;-66
2023/01/04 10:24:13;;;;;;;11.73;4.28;;;;;;;4.49;74.71;101047.86;1620091;87;21049;-67
2023/01/04 10:26:47;;;;;;;11.40;5.30;;;;;;;4.45;75.50;101046.44;1605104;89;21113;-68
2023/01/04 10:29:41;;;;;;;9.33;4.25;;;;;;;4.42;75.96;101053.50;1691981;85;21078;-68
2023/01/04 10:32:25;;;;;;;6.55;2.85;;;;;;;4.43;76.52;101058.79;1695639;85;21042;-67
2023/01/04 10:34:54;;;;;;;4.80;2.40;;;;;;;4.45;76.45;101046.44;1695036;85;21023;-66
2023/01/04 10:37:28;;;;;;;6.12;3.25;;;;;;;4.43;76.59;101047.94;1670420;85;21614;-66
2023/01/04 10:39:57;;;;;;;6.15;3.20;;;;;;;4.43;76.71;101041.66;1695374;85;21603;-65
2023/01/04 10:42:48;;;;;;;5.78;3.37;;;;;;;4.44;76.98;101043.36;1695642;85;21454;-66
2023/01/04 10:45:34;;;;;;;5.08;2.80;;;;;;;4.42;77.16;101047.58;1637111;85;21516;-68
2023/01/04 10:48:37;;;;;;;8.00;3.72;;;;;;;4.44;77.57;101052.86;1695337;85;21490;-70
2023/01/04 10:51:06;;;;;;;3.95;2.42;;;;;;;4.45;77.57;101051.86;1695344;85;21050;-67
2023/01/04 10:53:49;;;;;;;5.10;2.40;;;;;;;4.48;77.77;101043.94;1695546;84;21026;-67
2023/01/04 10:56:27;;;;;;;3.15;1.82;;;;;;;4.46;77.72;101048.15;1695709;84;21086;-66
2023/01/04 10:59:13;;;;;;;4.95;2.50;;;;;;;4.45;78.08;101055.93;1590796;89;21057;-68
2023/01/04 11:02:03;;;;;;;7.22;3.17;;;;;;;4.45;78.10;101055.44;1611346;89;21037;-66
2023/01/04 11:04:44;;;;;;;5.83;2.90;;;;;;;4.42;78.20;101057.58;1611432;89;21525;-69
2023/01/04 11:07:22;;;;;;;7.33;2.90;;;;;;;4.37;78.28;101052.57;1611813;89;21061;-70
2023/01/04 11:10:02;;;;;;;7.87;3.00;;;;;;;4.34;78.33;101057.42;1578721;90;21063;-67
2023/01/04 11:12:33;;;;;;;10.20;3.75;;;;;;;4.28;78.48;101049.85;1578813;91;21082;-67
2023/01/04 11:15:04;;;;;;;7.42;3.40;;;;;;;4.26;78.86;101059.98;1553322;92;21499;-68
2023/01/04 11:17:34;;;;;;;7.90;3.10;;;;;;;4.20;78.96;101057.34;1635094;86;21091;-67
2023/01/04 11:20:06;;;;;;;7.40;3.00;;;;;;;4.10;79.44;101059.18;1695613;84;21062;-68
2023/01/04 11:22:43;;;;;;;5.65;3.02;;;;;;;4.02;79.64;101068.02;1695090;84;21109;-66
2023/01/04 11:25:19;;;;;;;5.45;1.98;;;;;;;4.00;80.04;101074.57;1695868;83;21011;-68
2023/01/04 11:28:04;;;;;;;6.50;3.08;;;;;;;3.95;80.51;101057.37;1695912;83;21062;-68
2023/01/04 11:30:40;;;;;;;9.95;3.33;;;;;;;3.90;80.95;101054.22;1698344;84;21505;-65
2023/01/04 11:33:20;;;;;;;7.60;3.70;;;;;;;3.87;81.29;101048.18;1696117;84;21071;-66
2023/01/04 11:35:54;;;;;;;8.30;3.98;;;;;;;3.89;81.53;101052.47;1698568;84;21098;-67
2023/01/04 11:38:26;;;;;;;8.03;3.65;;;;;;;3.89;81.94;101053.82;1698334;84;21583;-66
2023/01/04 11:41:01;;;;;;;7.42;3.33;;;;;;;3.91;81.96;101048.29;1698416;84;21070;-65
2023/01/04 11:43:31;;;;;;;8.60;3.95;;;;;;;3.93;81.88;101040.37;1698413;84;21536;-66
2023/01/04 11:46:23;;;;;;;7.10;3.42;;;;;;;3.96;81.90;101041.45;1697946;84;21058;-67
2023/01/04 11:48:52;;;;;;;8.95;3.62;;;;;;;4.01;81.89;101032.41;1698501;84;21458;-67
2023/01/04 11:51:32;;;;;;;7.10;3.25;;;;;;;4.07;81.83;101037.77;1698322;84;21050;-67
2023/01/04 11:54:18;;;;;;;7.62;3.47;;;;;;;4.11;81.71;101037.34;1698125;84;21501;-67
2023/01/04 11:57:01;;;;;;;6.85;3.70;;;;;;;4.12;81.63;101038.20;1698383;84;21050;-67
2023/01/04 11:59:32;;;;;;;7.20;3.15;;;;;;;4.12;81.61;101037.70;1698184;84;21474;-67
2023/01/04 12:02:26;;;;;;;8.35;3.90;;;;;;;4.17;81.05;101040.48;1698517;84;21038;-66
2023/01/04 12:04:56;;;;;;;7.67;3.47;;;;;;;4.16;80.63;101032.86;1648351;84;21504;-66
2023/01/04 12:07:31;;;;;;;10.32;3.83;;;;;;;4.20;80.52;101037.00;1698506;84;21074;-66
2023/01/04 12:10:21;;;;;;;11.78;3.90;;;;;;;4.25;80.39;101028.44;1698389;83;21090;-68
2023/01/04 12:12:50;;;;;;;17.20;5.17;;;;;;;4.29;79.96;101028.51;1698272;84;21586;-68
2023/01/04 12:15:40;;;;;;;10.88;4.60;;;;;;;4.30;79.54;101023.44;1698640;84;21050;-67
2023/01/04 12:18:20;;;;;;;16.12;5.85;;;;;;;4.32;78.82;101026.87;1698373;84;21785;-68
2023/01/04 12:20:50;;;;;;;11.48;4.47;;;;;;;4.31;78.67;101030.58;1698401;84;21490;-67
2023/01/04 12:23:19;;;;;;;3.85;2.22;;;;;;;4.32;78.43;101024.16;1698547;84;21018;-66
2023/01/04 12:25:50;;;;;;;6.37;2.10;;;;;;;4.31;77.49;101025.16;1701888;84;21058;-69
2023/01/04 12:28:36;;;;;;;3.95;2.20;;;;;;;4.27;77.43;101032.72;1714018;84;21074;-66
2023/01/04 12:31:27;;;;;;;7.12;3.15;;;;;;;4.27;77.45;101030.51;1713947;84;21037;-67
2023/01/04 12:34:24;;;;;;;7.72;3.40;;;;;;;4.29;77.50;101031.22;1714360;84;21017;-65
2023/01/04 12:36:56;;;;;;;4.83;2.67;;;;;;;4.33;77.67;101035.37;1687914;84;21005;-68
2023/01/04 12:39:46;;;;;;;4.58;2.40;;;;;;;4.37;77.31;101042.22;1713986;84;20982;-65
2023/01/04 12:42:23;;;;;;;4.65;2.65;;;;;;;4.35;76.77;101032.02;1714634;84;20978;-66
2023/01/04 12:44:56;;;;;;;4.33;2.50;;;;;;;4.34;76.48;101028.44;1714613;83;21027;-66
2023/01/04 12:50:26;;;;;;;6.70;3.60;;;;;;;4.34;76.65;101036.58;1714235;84;21052;-65
2023/01/04 12:52:56;;;;;;;5.22;2.55;;;;;;;4.34;76.61;101035.72;1714273;84;20997;-65
2023/01/04 12:55:44;;;;;;;3.92;2.30;;;;;;;4.33;76.46;101028.58;1710676;84;21480;-66
2023/01/04 12:58:34;;;;;;;5.10;2.47;;;;;;;4.27;76.66;101040.86;1714422;84;20957;-67
2023/01/04 13:01:08;;;;;;;5.58;2.10;;;;;;;4.21;77.08;101035.14;1710338;84;21413;-67